• Join FlightAware (Why Join?)
  • Login
  • US Flag 
10:00PM EDT


 

Airport Tracker/Info


-or-


 

Live Flight TrackerFlight Track Log ✈ EJA831 ✈ 21-Apr-2013 ✈ KSAV - KMTN

Flight Track Log - Related Links

Times and Time Zones

All times are in EDT time to prevent confusion due to time zone crossing. See the EJA831 flight status page for this flight to view local times or setup timezone preferences in your user account.

Time Position Orientation Groundspeed Altitude Reporting Facility
EDT Latitude Longitude Course Direction KTS MPH feet Rate Location/Type
04:15PM 32.1947 -81.0414 53° Northeast 289 333 9,500  Level Jacksonville Center
04:16PM 32.2519 -80.9617 50° Northeast 311 358 11,000 2,220 Climbing Jacksonville Center
04:17PM 32.3092 -80.8819 50° Northeast 336 387 14,000 3,000 Climbing Jacksonville Center
04:18PM 32.3767 -80.7844 51° Northeast 348 400 17,000 2,220 Climbing Jacksonville Center
04:19PM 32.5470 -80.5512 53° Northeast  Level FlightAware Approximate
04:19PM 32.4378 -80.6969 50° Northeast 365 420 18,500  Level Jacksonville Center
04:20PM 32.6180 -80.4405 53° Northeast  Level FlightAware Approximate
04:20PM 32.5069 -80.5967 51° Northeast 379 436 20,800  Level Jacksonville Center
04:21PM 32.5800 -80.4914 51° Northeast 392 451 22,700 1,200 Climbing Jacksonville Center
04:22PM 32.6572 -80.3783 51° Northeast 412 474 23,200 1,260 Climbing Jacksonville Center
04:23PM 32.7383 -80.2625 50° Northeast 436 502 25,300 1,800 Climbing Jacksonville Center
04:24PM 32.8172 -80.1489 50° Northeast 447 514 26,800 1,740 Climbing Jacksonville Center
04:25PM 32.9147 -80.0247 47° Northeast 455 524 28,800 1,920 Climbing Jacksonville Center
04:26PM 33.0256 -79.9419 32° Northeast 455 524 30,700 1,740 Climbing Jacksonville Center
04:27PM 33.1322 -79.8639 31° Northeast 450 518 32,300 1,140 Climbing Jacksonville Center
04:28PM 33.2431 -79.7831 31° Northeast 450 518 33,000 180 Climbing Jacksonville Center
04:30PM 33.3831 -79.6635 27° Northeast  Level FlightAware Approximate
04:30PM 33.4786 -79.6131 27° Northeast 480 552 33,000  Level Jacksonville Center
04:31PM 33.5933 -79.5264 32° Northeast 485 558 33,000  Level Jacksonville Center
04:32PM 33.7100 -79.4397 32° Northeast 485 558 33,000  Level Jacksonville Center
04:33PM 33.8122 -79.3658 31° Northeast 480 552 33,000  Level Jacksonville Center
04:34PM 33.9308 -79.2783 31° Northeast 480 552 33,000 420 Level Jacksonville Center
04:35PM 34.0492 -79.1933 31° Northeast 486 559 33,900 600 Climbing Jacksonville Center
04:37PM 34.3069 -78.9986 32° Northeast 477 549 35,000 300 Climbing Washington Center
04:38PM 34.4219 -78.9103 32° Northeast 488 562 35,000  Level Washington Center
04:39PM 34.5372 -78.8192 33° Northeast 488 562 35,000  Level Washington Center
04:40PM 34.6522 -78.7328 32° Northeast 488 562 35,000  Level Washington Center
04:41PM 34.7714 -78.6439 31° Northeast 493 567 35,000  Level Washington Center
04:42PM 34.8842 -78.5544 33° Northeast 493 567 35,000  Level Washington Center
04:43PM 35.0011 -78.4647 32° Northeast 487 560 35,000  Level Washington Center
04:44PM 35.1158 -78.3775 32° Northeast 487 560 35,000  Level Washington Center
04:45PM 35.2158 -78.2969 33° Northeast 487 560 35,000  Level Washington Center
04:46PM 35.3242 -78.2142 32° Northeast 468 539 35,000  Level Washington Center
04:47PM 35.4281 -78.1333 32° Northeast 457 526 35,000  Level Washington Center
04:48PM 35.5361 -78.0500 32° Northeast 452 520 35,000  Level Washington Center
04:49PM 35.6442 -77.9692 31° Northeast 452 520 35,000  Level Washington Center
04:50PM 35.7572 -77.9519 North 429 494 35,000 -60 Level Washington Center
04:51PM 35.8564 -78.0061 336° Northwest 372 428 34,900 -1,620 Descending Washington Center
04:52PM 35.9511 -78.0656 333° Northwest 363 418 31,800 -3,000 Descending Washington Center
04:53PM 36.0694 -78.0897 351° North 392 451 28,900 -2,280 Descending Washington Center
04:54PM 36.1958 -78.0294 21° North 431 496 27,300 -960 Descending Washington Center
04:55PM 36.3225 -77.9611 23° Northeast 446 513 27,000 -180 Descending Washington Center
04:56PM 36.4553 -77.8878 24° Northeast 470 541 27,000  Level Washington Center
04:57PM 36.5778 -77.8214 24° Northeast 475 547 27,000  Level Washington Center
04:58PM 36.7039 -77.7578 22° Northeast 480 552 27,000  Level Washington Center
04:59PM 36.8242 -77.6911 24° Northeast 480 552 27,000  Level Washington Center
05:00PM 36.9483 -77.6242 23° Northeast 480 552 27,000 -540 Level Washington Center
05:01PM 37.0725 -77.5572 23° Northeast 480 552 26,000 -960 Descending Washington Center
05:02PM 37.1925 -77.4925 23° Northeast 480 552 25,100 -540 Descending Washington Center
05:03PM 37.3103 -77.4250 25° Northeast 469 540 25,000 -240 Descending Washington Center
05:04PM 37.4303 -77.3597 23° Northeast 463 533 24,700 -960 Descending Washington Center
05:05PM 37.5497 -77.3128 17° North 456 525 23,100 -1,140 Descending Washington Center
05:06PM 37.6692 -77.2867 10° North 442 509 22,500 -1,080 Descending Washington Center
05:07PM 37.7883 -77.2631 North 430 495 21,000 -780 Descending Washington Center
05:08PM 37.9056 -77.2367 10° North 425 489 21,000  Level Washington Center
05:09PM 38.0206 -77.2128 North 425 489 21,000 -660 Level Washington Center
05:10PM 38.1333 -77.1942 North 420 483 19,700 -1,620 Descending Washington Center
05:11PM 38.2442 -77.1675 11° North 410 472 17,800 -1,920 Descending Washington Center
05:12PM 38.3383 -77.1508 North 394 453 15,900 -1,860 Descending Washington Center
05:13PM 38.4247 -77.0839 31° Northeast 361 415 14,100 -1,800 Descending Washington Center
05:14PM 38.4967 -76.9978 43° Northeast 354 407 12,400 -1,500 Descending Washington Center
05:15PM 38.5683 -76.9114 43° Northeast 349 402 11,200 -1,140 Descending Washington Center
05:16PM 38.6317 -76.8356 43° Northeast 330 380 10,200 -1,020 Descending Washington Center
05:17PM 38.6908 -76.7619 44° Northeast 309 356 9,200 -1,080 Descending Washington Center
05:18PM 38.7311 -76.6800 58° Northeast 286 329 8,100 -1,260 Descending Washington Center
05:19PM 38.7833 -76.5833 55° Northeast 266 306 6,800 -1,320 Descending Potomac TRACON
05:20PM 38.8333 -76.5167 46° Northeast 261 300 5,600 -1,380 Descending Potomac TRACON
05:21PM 38.8833 -76.4833 27° Northeast 247 284 4,100 -900 Descending Potomac TRACON
05:22PM 38.9500 -76.4333 30° Northeast 245 282 3,900 -420 Descending Potomac TRACON
05:23PM 39.0000 -76.4000 27° Northeast 225 259 3,300 -540 Descending Potomac TRACON
05:24PM 39.0500 -76.3833 15° North 203 234 2,900 -240 Descending Potomac TRACON
05:25PM 39.1167 -76.3833 360° North 193 222 2,900 -60 Level Potomac TRACON
05:26PM 39.1667 -76.4000 346° North 184 212 2,800 -480 Descending Potomac TRACON
05:27PM 39.2000 -76.4167 339° North 188 216 2,000 -420 Descending Potomac TRACON
05:28PM 39.2667 -76.4333 349° North 175 201 2,000 -240 Level Potomac TRACON
05:29PM 39.3000 -76.4500 339° North 160 184 1,600 -240 Descending Potomac TRACON
05:30PM 39.3333 -76.4833 322° Northwest 142 163 1,600 -480 Level Potomac TRACON
05:31PM 39.3500 -76.4500 57° Northeast 132 152 700 -900 Descending Potomac TRACON
05:33PM 39.3257 -76.4138 104° East  Level Estimated
05:40PM 39.3257 -76.4138 104° East  Level Estimated
05:41PM 39.3257 -76.4138 104° East  Level Estimated
05:42PM 39.3257 -76.4138 104° East  Level Estimated
05:43PM 39.3257 -76.4138 104° East  Level Estimated
05:44PM 39.3257 -76.4138 104° East  Level Estimated
05:45PM 39.3257 -76.4138 104° East  Level Estimated
05:46PM 39.3257 -76.4138 104° East  Level Estimated